Rockport, Texas
Current Conditions -  °F | °C
As of 9:53 PM on Friday 24 Oct 2014 (Local Time) from KRKP Reporting Station
Clear Clear  
Wind Chill: 74°   Ceiling: Unl
Heat Index: 74°   Visibility: 10mi
Dew Point: 63°   Wind: 9mph
Humidity: 68%   Direction: 130°SE
Pressure: 30.12"   Gusts: NA
Location:  28.01°N, 97.06°W
Report Text: KRKP 250253Z AUTO 13008KT 10SM CLR 23/17 A3012 RMK AO2 SLP202 T02330172 51014
Loading
Personal Weather Stations






























Interactive Weather Map
Tropical Storm Tracking
New forecast layout! Learn more

10-Day Weather Forecast

Advertisements
Track Severe Weather on mobile